Time;durP1;ratioP1;P1;durP2;ratioP2;P2;SDS_P1;SDS_P2;PMS_P1;PMS_P2;Temp;Humidity;BMP_temperature;BMP_pressure;BME280_temperature;BME280_humidity;BME280_pressure;Samples;Min_cycle;Max_cycle;Signal;HPM_P1;HPM_P2
2022/05/04 00:02:18;;;;;;;8.03;3.17;;;9.00;99.90;;;;;;4954671;29;20205;-79
2022/05/04 00:04:43;;;;;;;8.43;3.10;;;8.90;99.90;;;;;;4955808;29;20276;-78
2022/05/04 00:07:09;;;;;;;8.87;2.83;;;9.00;99.90;;;;;;4954760;29;20545;-79
2022/05/04 00:09:35;;;;;;;8.03;2.87;;;8.90;99.90;;;;;;4943227;29;20696;-78
2022/05/04 00:12:01;;;;;;;6.03;2.57;;;8.90;99.90;;;;;;4936746;29;20689;-78
2022/05/04 00:14:27;;;;;;;9.30;2.70;;;8.70;99.90;;;;;;4936617;29;20214;-78
2022/05/04 00:16:52;;;;;;;9.60;3.17;;;8.60;99.90;;;;;;4936844;29;20182;-79
2022/05/04 00:19:18;;;;;;;7.00;2.63;;;8.60;99.90;;;;;;4936357;29;20229;-79
2022/05/04 00:21:44;;;;;;;5.20;2.70;;;8.50;99.90;;;;;;4940023;29;20308;-79
2022/05/04 00:24:09;;;;;;;6.80;3.10;;;8.60;99.90;;;;;;4940426;29;20204;-78
2022/05/04 00:26:35;;;;;;;5.83;3.03;;;8.50;99.90;;;;;;4939135;29;20174;-78
2022/05/04 00:29:01;;;;;;;6.07;3.17;;;8.50;99.90;;;;;;4940232;29;20233;-78
2022/05/04 00:31:27;;;;;;;9.37;3.00;;;8.60;99.90;;;;;;4940057;29;20189;-79
2022/05/04 00:33:52;;;;;;;5.87;2.63;;;8.60;99.90;;;;;;4939726;29;20217;-79
2022/05/04 00:36:18;;;;;;;6.80;3.07;;;8.70;99.90;;;;;;4947377;29;20280;-79
2022/05/04 00:38:43;;;;;;;7.63;3.17;;;8.60;99.90;;;;;;4957964;29;20273;-79
2022/05/04 00:41:09;;;;;;;6.60;3.13;;;8.40;99.90;;;;;;4959280;29;20196;-79
2022/05/04 00:43:35;;;;;;;6.73;3.37;;;8.50;99.90;;;;;;4959298;29;20184;-79
2022/05/04 00:46:01;;;;;;;6.13;3.10;;;8.40;99.90;;;;;;4959029;28;20200;-79
2022/05/04 00:48:26;;;;;;;6.00;2.97;;;8.40;99.90;;;;;;4958614;29;20239;-79
2022/05/04 00:50:54;;;;;;;8.80;3.30;;;8.40;99.90;;;;;;4958831;28;20185;-79
2022/05/04 00:53:21;;;;;;;6.10;3.13;;;8.40;99.90;;;;;;4958925;28;20188;-79
2022/05/04 00:55:48;;;;;;;6.43;3.23;;;8.40;99.90;;;;;;4958779;28;20212;-79
2022/05/04 01:01:01;;;;;;;10.07;3.73;;;8.50;99.90;;;;;;4958926;29;20180;-79
2022/05/04 01:03:27;;;;;;;7.60;3.30;;;8.40;99.90;;;;;;4958434;28;20268;-79
2022/05/04 01:05:53;;;;;;;6.53;3.20;;;8.30;99.90;;;;;;4958709;28;20386;-79
2022/05/04 01:08:18;;;;;;;5.83;3.00;;;8.40;99.90;;;;;;4958663;28;20177;-79
2022/05/04 01:10:44;;;;;;;7.17;2.70;;;8.20;99.90;;;;;;4958674;29;20191;-79
2022/05/04 01:13:10;;;;;;;10.57;3.30;;;8.10;99.90;;;;;;4958395;28;20664;-79
2022/05/04 01:15:36;;;;;;;6.97;3.47;;;8.20;99.90;;;;;;4958578;28;20213;-79
2022/05/04 01:18:01;;;;;;;7.93;3.27;;;8.20;99.90;;;;;;4958549;29;20280;-79
2022/05/04 01:20:27;;;;;;;10.00;3.37;;;8.00;99.90;;;;;;4958055;29;20217;-79
2022/05/04 01:22:53;;;;;;;7.07;3.50;;;8.10;99.90;;;;;;4958344;29;20577;-79
2022/05/04 01:25:20;;;;;;;8.27;3.43;;;8.20;99.90;;;;;;4958533;28;20169;-79
2022/05/04 01:27:45;;;;;;;10.87;3.43;;;8.20;99.90;;;;;;4958212;28;20228;-79
2022/05/04 01:30:12;;;;;;;7.53;2.97;;;8.00;99.90;;;;;;4958298;29;20181;-79
2022/05/04 01:32:39;;;;;;;9.60;3.30;;;8.10;99.90;;;;;;4956930;28;20177;-79
2022/05/04 01:35:05;;;;;;;7.47;3.50;;;8.10;99.90;;;;;;4957962;28;20261;-79
2022/05/04 01:37:30;;;;;;;6.47;3.27;;;7.90;99.90;;;;;;4957001;29;20189;-79
2022/05/04 01:39:56;;;;;;;9.83;3.23;;;7.90;99.90;;;;;;4956854;29;20328;-79
2022/05/04 01:42:24;;;;;;;7.73;3.40;;;7.80;99.90;;;;;;4957924;28;20204;-79
2022/05/04 01:44:50;;;;;;;11.97;3.47;;;7.70;99.90;;;;;;4956875;29;20521;-80
2022/05/04 01:47:16;;;;;;;6.70;3.43;;;7.50;99.90;;;;;;4958129;28;20176;-79
2022/05/04 01:49:41;;;;;;;9.10;3.40;;;7.50;99.90;;;;;;4957677;29;20609;-78
2022/05/04 01:52:07;;;;;;;7.33;3.33;;;7.40;99.90;;;;;;4958028;29;20169;-79
2022/05/04 01:54:33;;;;;;;8.00;3.20;;;7.40;99.90;;;;;;5306348;23;20203;-78
2022/05/04 01:56:59;;;;;;;6.63;3.30;;;7.40;99.90;;;;;;4918100;29;20206;-79
2022/05/04 01:59:25;;;;;;;9.23;3.60;;;7.40;99.90;;;;;;4926244;29;20186;-78
2022/05/04 02:01:51;;;;;;;7.17;3.50;;;7.40;99.90;;;;;;4918429;29;20183;-79
2022/05/04 02:04:17;;;;;;;8.13;3.30;;;7.40;99.90;;;;;;4919323;29;20225;-79
2022/05/04 02:06:44;;;;;;;6.53;3.10;;;7.40;99.90;;;;;;4928402;29;20193;-79
2022/05/04 02:09:09;;;;;;;8.50;3.47;;;7.30;99.90;;;;;;4938450;29;20170;-79
2022/05/04 02:11:37;;;;;;;7.53;3.50;;;7.20;99.90;;;;;;4938126;29;20178;-78
2022/05/04 02:14:04;;;;;;;4.60;2.77;;;7.10;99.90;;;;;;4936798;29;20241;-79
2022/05/04 02:16:30;;;;;;;7.83;3.27;;;7.30;99.90;;;;;;4938375;29;20189;-78
2022/05/04 02:18:57;;;;;;;6.33;3.43;;;7.50;99.90;;;;;;4936744;29;20186;-79
2022/05/04 02:21:22;;;;;;;5.60;3.70;;;7.40;99.90;;;;;;4936994;29;20210;-79
2022/05/04 02:23:48;;;;;;;7.40;3.70;;;7.20;99.90;;;;;;4938179;29;20213;-79
2022/05/04 02:26:14;;;;;;;9.37;3.37;;;7.10;99.90;;;;;;4937551;29;20265;-78
2022/05/04 02:28:39;;;;;;;9.37;3.53;;;7.10;99.90;;;;;;4938245;29;20170;-79
2022/05/04 02:31:05;;;;;;;7.20;3.60;;;7.20;99.90;;;;;;4938013;29;20261;-79
2022/05/04 02:33:32;;;;;;;6.80;2.90;;;7.20;99.90;;;;;;4936699;29;20621;-78
2022/05/04 02:38:41;;;;;;;7.30;4.07;;;7.20;99.90;;;;;;4937833;29;20216;-78
2022/05/04 02:41:07;;;;;;;7.77;4.00;;;7.10;99.90;;;;;;4937961;29;20626;-78
2022/05/04 02:43:33;;;;;;;7.17;3.60;;;7.00;99.90;;;;;;4937463;29;20178;-79
2022/05/04 02:46:12;;;;;;;9.53;3.50;;;7.00;99.90;;;;;;4936421;29;20209;-79
2022/05/04 02:48:38;;;;;;;8.20;3.87;;;7.00;99.90;;;;;;4937965;29;20605;-79
2022/05/04 02:51:04;;;;;;;7.37;3.67;;;7.00;99.90;;;;;;4937562;29;20194;-78
2022/05/04 02:53:30;;;;;;;5.57;3.33;;;6.90;99.90;;;;;;4937531;29;20214;-79
2022/05/04 02:55:55;;;;;;;8.47;3.77;;;6.70;99.90;;;;;;4936215;29;20261;-79
2022/05/04 02:58:21;;;;;;;5.87;3.27;;;6.70;99.90;;;;;;4937720;29;20186;-79
2022/05/04 03:00:47;;;;;;;7.20;3.20;;;6.70;99.90;;;;;;4936422;29;20190;-79
2022/05/04 03:03:12;;;;;;;6.77;3.57;;;6.70;99.90;;;;;;4937433;29;20635;-78
2022/05/04 03:05:38;;;;;;;7.57;3.83;;;6.80;99.90;;;;;;4935825;29;20280;-78
2022/05/04 03:08:04;;;;;;;7.87;3.97;;;6.80;99.90;;;;;;4937320;29;20178;-78
2022/05/04 03:10:29;;;;;;;7.73;3.90;;;6.90;99.90;;;;;;4937403;29;20186;-78
2022/05/04 03:12:55;;;;;;;7.30;3.50;;;6.70;99.90;;;;;;4937383;29;20588;-79
2022/05/04 03:15:21;;;;;;;8.60;3.90;;;6.70;99.90;;;;;;4936033;29;20269;-79
2022/05/04 03:17:46;;;;;;;10.67;4.30;;;6.50;99.90;;;;;;4935928;29;20613;-79
2022/05/04 03:20:12;;;;;;;11.63;3.53;;;6.40;99.90;;;;;;4937007;29;20182;-79
2022/05/04 03:22:39;;;;;;;7.53;3.53;;;6.30;99.90;;;;;;4935882;29;20181;-79
2022/05/04 03:25:08;;;;;;;9.67;3.87;;;6.40;99.90;;;;;;4937490;29;20556;-79
2022/05/04 03:27:34;;;;;;;7.33;3.90;;;6.60;99.90;;;;;;4936003;29;20237;-79
2022/05/04 03:30:01;;;;;;;6.93;4.00;;;6.50;99.90;;;;;;4937052;29;20169;-79
2022/05/04 03:32:26;;;;;;;8.07;3.80;;;6.50;99.90;;;;;;4935851;29;20182;-79
2022/05/04 03:34:52;;;;;;;5.33;3.03;;;6.40;99.90;;;;;;4936657;29;20213;-79
2022/05/04 03:37:18;;;;;;;8.13;4.00;;;6.30;99.90;;;;;;4937095;29;20209;-79
2022/05/04 03:39:43;;;;;;;11.80;3.73;;;6.40;99.90;;;;;;4935882;29;20182;-78
2022/05/04 03:42:12;;;;;;;10.47;3.77;;;6.40;99.90;;;;;;4937182;29;20268;-79
2022/05/04 03:44:37;;;;;;;6.13;3.47;;;6.40;99.90;;;;;;4937317;29;20186;-79
2022/05/04 03:47:03;;;;;;;8.73;3.50;;;6.40;99.90;;;;;;4937143;29;20204;-78
2022/05/04 03:49:29;;;;;;;7.37;3.27;;;6.50;99.90;;;;;;4936437;29;20227;-78
2022/05/04 03:51:56;;;;;;;9.10;3.30;;;6.50;99.90;;;;;;4936944;29;20184;-79
2022/05/04 03:54:21;;;;;;;9.27;3.63;;;6.40;99.90;;;;;;4935700;29;20210;-78
2022/05/04 03:56:47;;;;;;;10.73;3.47;;;6.40;99.90;;;;;;4940638;29;20226;-78
2022/05/04 03:59:13;;;;;;;11.10;4.00;;;6.40;99.90;;;;;;4941007;29;20166;-78
2022/05/04 04:01:39;;;;;;;7.67;3.73;;;6.50;99.90;;;;;;4940737;29;20181;-78
2022/05/04 04:04:05;;;;;;;6.83;3.80;;;6.40;99.90;;;;;;4940667;29;20508;-78
2022/05/04 04:06:32;;;;;;;5.50;3.30;;;6.30;99.90;;;;;;4940634;29;20189;-79
2022/05/04 04:08:58;;;;;;;11.37;3.83;;;6.30;99.90;;;;;;4940536;29;20182;-79
2022/05/04 04:11:24;;;;;;;5.90;3.57;;;6.40;99.90;;;;;;4940491;29;20170;-79
2022/05/04 04:13:50;;;;;;;9.17;3.90;;;6.40;99.90;;;;;;4939242;29;20257;-79
2022/05/04 04:16:16;;;;;;;8.57;4.00;;;6.30;99.90;;;;;;4939280;29;20629;-79
2022/05/04 04:18:42;;;;;;;10.03;3.57;;;6.20;99.90;;;;;;4939054;29;20185;-79
2022/05/04 04:23:52;;;;;;;7.60;3.50;;;6.30;99.90;;;;;;4940792;29;20190;-79
2022/05/04 04:26:18;;;;;;;8.07;3.77;;;6.20;99.90;;;;;;4940353;29;20269;-79
2022/05/04 04:28:44;;;;;;;6.77;3.30;;;6.30;99.90;;;;;;4938998;29;20527;-79
2022/05/04 04:31:10;;;;;;;8.27;3.80;;;6.20;99.90;;;;;;4939918;29;20600;-78
2022/05/04 04:33:36;;;;;;;11.90;4.00;;;6.20;99.90;;;;;;4939957;29;20180;-79
2022/05/04 04:36:03;;;;;;;8.37;4.00;;;6.30;99.90;;;;;;4939829;29;20355;-79
2022/05/04 04:38:29;;;;;;;6.33;3.67;;;6.30;99.90;;;;;;4939265;29;20173;-78
2022/05/04 04:40:55;;;;;;;9.87;3.80;;;6.30;99.90;;;;;;4937824;29;20178;-79
2022/05/04 04:43:21;;;;;;;12.53;4.27;;;6.20;99.90;;;;;;4939745;29;20229;-79
2022/05/04 04:45:48;;;;;;;7.20;3.87;;;6.30;99.90;;;;;;4938195;29;20194;-79
2022/05/04 04:48:16;;;;;;;8.50;3.80;;;6.30;99.90;;;;;;4938029;29;20170;-80
2022/05/04 04:50:46;;;;;;;7.80;3.80;;;6.30;99.90;;;;;;4939763;29;20272;-79
2022/05/04 04:53:13;;;;;;;10.30;4.20;;;6.40;99.90;;;;;;4939446;29;20170;-79
2022/05/04 04:55:43;;;;;;;9.20;3.80;;;6.50;99.90;;;;;;4939196;29;20225;-79
2022/05/04 04:58:09;;;;;;;9.27;4.00;;;6.60;99.90;;;;;;4939337;29;20248;-79
2022/05/04 05:00:34;;;;;;;12.27;3.97;;;6.70;99.90;;;;;;4938488;29;20177;-79
2022/05/04 05:03:00;;;;;;;9.70;3.90;;;6.70;99.90;;;;;;4939677;29;20174;-80
2022/05/04 05:05:26;;;;;;;8.70;4.03;;;6.90;99.90;;;;;;4939211;29;20183;-80
2022/05/04 05:07:52;;;;;;;8.93;4.00;;;7.00;99.90;;;;;;4939708;29;20178;-79
2022/05/04 05:10:17;;;;;;;9.57;4.07;;;7.00;99.90;;;;;;4939610;29;20201;-79
2022/05/04 05:12:43;;;;;;;14.40;3.90;;;7.10;99.90;;;;;;4939378;29;20170;-79
2022/05/04 05:17:54;;;;;;;13.63;4.30;;;7.20;99.90;;;;;;4939791;29;20177;-80
2022/05/04 05:20:19;;;;;;;8.33;3.70;;;7.20;99.90;;;;;;4939373;29;20178;-79
2022/05/04 05:22:45;;;;;;;9.70;4.27;;;7.20;99.90;;;;;;4939312;29;20174;-79
2022/05/04 05:25:11;;;;;;;9.33;3.37;;;7.30;99.90;;;;;;4939123;29;20656;-79
2022/05/04 05:27:37;;;;;;;11.70;4.30;;;7.40;99.90;;;;;;4937789;29;20625;-79
2022/05/04 05:30:04;;;;;;;11.40;4.10;;;7.30;99.90;;;;;;4939249;29;20186;-79
2022/05/04 05:32:29;;;;;;;12.40;4.27;;;7.40;99.90;;;;;;4939226;29;20185;-79
2022/05/04 05:34:55;;;;;;;12.27;3.97;;;7.40;99.90;;;;;;4938688;29;20553;-79
2022/05/04 05:37:21;;;;;;;13.43;4.10;;;7.50;99.90;;;;;;4939020;29;20608;-79
2022/05/04 05:39:47;;;;;;;13.27;3.83;;;7.60;99.90;;;;;;4938892;29;20182;-79
2022/05/04 05:42:13;;;;;;;10.53;3.37;;;7.70;99.90;;;;;;4938809;29;20163;-79
2022/05/04 05:44:39;;;;;;;12.67;4.37;;;7.40;99.90;;;;;;4938998;29;20185;-79
2022/05/04 05:47:05;;;;;;;11.80;4.13;;;7.50;99.90;;;;;;4938890;29;20177;-79
2022/05/04 05:49:31;;;;;;;11.47;3.40;;;7.60;99.90;;;;;;4937200;29;20636;-79
2022/05/04 05:51:57;;;;;;;10.93;4.00;;;7.60;99.90;;;;;;4937581;29;20178;-78
2022/05/04 05:54:23;;;;;;;8.90;3.23;;;7.80;99.90;;;;;;4937323;29;20209;-79
2022/05/04 05:56:49;;;;;;;13.23;3.67;;;7.80;99.90;;;;;;4938385;29;20253;-78
2022/05/04 05:59:15;;;;;;;9.53;3.70;;;7.80;99.90;;;;;;4938651;29;20174;-78
2022/05/04 06:01:41;;;;;;;14.90;4.00;;;7.80;99.90;;;;;;4938613;29;20628;-79
2022/05/04 06:04:07;;;;;;;12.13;3.80;;;7.80;99.90;;;;;;4937370;29;20194;-79
2022/05/04 06:06:33;;;;;;;12.53;3.30;;;7.90;99.90;;;;;;4938304;29;20641;-79
2022/05/04 06:08:59;;;;;;;12.93;3.93;;;7.90;99.90;;;;;;4938550;29;20310;-78
2022/05/04 06:11:25;;;;;;;17.27;4.77;;;8.00;99.90;;;;;;4938332;29;20172;-79
2022/05/04 06:13:54;;;;;;;12.77;3.60;;;8.00;99.90;;;;;;4938332;29;20196;-79
2022/05/04 06:16:20;;;;;;;14.10;4.10;;;8.10;99.90;;;;;;4938240;29;20182;-79
2022/05/04 06:18:45;;;;;;;13.23;3.90;;;8.10;99.90;;;;;;4937956;29;20192;-79
2022/05/04 06:21:12;;;;;;;12.00;3.70;;;8.10;99.90;;;;;;4937973;29;20478;-79
2022/05/04 06:23:37;;;;;;;11.67;3.73;;;8.20;99.90;;;;;;4938044;29;20186;-79
2022/05/04 06:26:03;;;;;;;15.67;3.97;;;8.30;99.90;;;;;;4938130;29;20205;-79
2022/05/04 06:28:29;;;;;;;12.33;3.33;;;8.30;99.90;;;;;;4938348;29;20182;-79
2022/05/04 06:36:24;;;;;;;10.07;3.37;;;8.50;99.90;;;;;;4937894;29;20636;-79
2022/05/04 06:38:49;;;;;;;15.43;3.90;;;8.70;99.90;;;;;;4937892;29;20174;-79
2022/05/04 06:41:15;;;;;;;8.60;3.30;;;8.70;99.90;;;;;;4937761;29;20166;-78
2022/05/04 06:43:42;;;;;;;12.37;3.80;;;8.80;99.90;;;;;;4937797;29;20182;-78
2022/05/04 06:46:07;;;;;;;11.37;3.30;;;8.90;99.90;;;;;;4938046;29;20321;-79
2022/05/04 06:48:34;;;;;;;9.10;3.43;;;9.00;99.90;;;;;;4936555;29;20256;-79
2022/05/04 06:50:59;;;;;;;9.70;3.23;;;9.10;99.90;;;;;;4937460;29;20598;-80
2022/05/04 06:53:25;;;;;;;14.37;3.57;;;9.20;99.90;;;;;;4937527;29;20318;-79
2022/05/04 06:55:51;;;;;;;11.70;3.60;;;9.30;99.90;;;;;;4937499;29;20240;-80
2022/05/04 06:58:16;;;;;;;10.13;3.43;;;9.50;99.90;;;;;;4937587;29;20213;-79
2022/05/04 07:00:42;;;;;;;12.77;2.80;;;9.60;99.90;;;;;;4937620;29;20609;-79
2022/05/04 07:03:08;;;;;;;13.50;3.60;;;9.70;99.90;;;;;;4936262;29;20185;-80
2022/05/04 07:05:33;;;;;;;10.90;3.30;;;9.90;99.90;;;;;;4935855;29;20184;-80
2022/05/04 07:07:59;;;;;;;13.80;3.33;;;10.00;99.90;;;;;;4937453;29;20178;-80
2022/05/04 07:10:25;;;;;;;8.50;2.73;;;10.20;99.90;;;;;;4936218;29;20546;-81
2022/05/04 07:12:50;;;;;;;8.60;3.13;;;10.40;99.90;;;;;;4937291;29;20504;-80
2022/05/04 07:15:17;;;;;;;7.83;2.60;;;10.40;99.90;;;;;;4932116;29;20218;-80
2022/05/04 07:17:43;;;;;;;10.00;3.07;;;10.60;99.90;;;;;;4918398;29;20610;-80
2022/05/04 07:20:09;;;;;;;6.30;3.10;;;10.70;99.90;;;;;;4917961;29;20171;-80
2022/05/04 07:22:36;;;;;;;7.63;3.30;;;10.80;99.90;;;;;;4918471;29;20182;-80
2022/05/04 07:25:03;;;;;;;14.17;3.23;;;10.90;99.90;;;;;;4917460;29;20216;-80
2022/05/04 07:27:28;;;;;;;14.55;3.53;;;11.00;99.90;;;;;;4918108;29;20182;-80
2022/05/04 07:29:54;;;;;;;14.68;3.00;;;11.10;99.90;;;;;;4918169;29;20182;-80
2022/05/04 07:32:20;;;;;;;13.52;2.80;;;11.30;99.90;;;;;;4918009;29;20170;-81
2022/05/04 07:34:46;;;;;;;9.27;3.37;;;11.40;99.90;;;;;;4917901;29;20246;-80
2022/05/04 07:37:12;;;;;;;7.07;2.83;;;11.50;99.90;;;;;;4932065;29;20617;-80
2022/05/04 07:42:26;;;;;;;8.10;3.00;;;11.70;99.90;;;;;;4937229;29;20524;-80
2022/05/04 07:45:03;;;;;;;8.95;2.45;;;11.80;99.90;;;;;;4936992;29;20521;-80
2022/05/04 07:47:34;;;;;;;9.82;2.45;;;11.80;99.90;;;;;;4936896;29;20197;-80
2022/05/04 07:50:02;;;;;;;10.85;3.05;;;11.90;99.90;;;;;;4935585;29;20416;-80
2022/05/04 07:52:27;;;;;;;9.00;2.42;;;11.90;99.90;;;;;;4937096;29;20194;-80
2022/05/04 07:54:53;;;;;;;7.90;2.53;;;12.00;99.90;;;;;;4936723;29;20308;-80
2022/05/04 07:57:19;;;;;;;5.57;2.40;;;12.10;99.90;;;;;;4936881;29;20174;-80
2022/05/04 08:05:14;;;;;;;6.78;2.63;;;12.50;99.90;;;;;;4936707;29;20181;-81
2022/05/04 08:07:40;;;;;;;6.70;2.90;;;12.60;99.90;;;;;;4936834;29;20178;-81
2022/05/04 08:10:06;;;;;;;8.50;3.05;;;12.70;99.90;;;;;;4936545;29;20182;-81
2022/05/04 08:12:33;;;;;;;12.10;2.65;;;12.70;99.90;;;;;;4936822;29;20174;-81
2022/05/04 08:14:59;;;;;;;16.05;3.22;;;12.80;99.90;;;;;;4936743;29;20210;-81
2022/05/04 08:17:25;;;;;;;10.27;3.00;;;12.80;99.90;;;;;;4936745;29;20182;-81
2022/05/04 08:19:51;;;;;;;4.93;2.60;;;12.90;99.90;;;;;;4935321;29;20309;-82
2022/05/04 08:22:17;;;;;;;12.35;2.70;;;13.00;99.90;;;;;;4936603;29;20604;-81
2022/05/04 08:24:43;;;;;;;12.75;2.92;;;13.20;99.90;;;;;;4935281;29;20221;-81
2022/05/04 08:27:08;;;;;;;7.55;2.90;;;13.50;99.90;;;;;;4936724;29;20186;-81
2022/05/04 08:29:34;;;;;;;9.85;2.78;;;13.50;99.90;;;;;;4936639;29;20237;-81
2022/05/04 08:32:00;;;;;;;10.20;3.17;;;13.40;99.90;;;;;;4935220;29;20566;-82
2022/05/04 08:34:26;;;;;;;6.63;2.53;;;13.40;99.90;;;;;;4936582;29;20206;-82
2022/05/04 08:36:51;;;;;;;6.50;2.70;;;13.50;99.90;;;;;;4936082;29;20182;-81
2022/05/04 08:39:17;;;;;;;10.80;3.00;;;13.60;99.90;;;;;;4936333;29;20268;-82
2022/05/04 08:41:43;;;;;;;6.85;2.60;;;13.70;99.90;;;;;;4938477;29;20254;-82
2022/05/04 08:44:11;;;;;;;9.05;2.50;;;13.80;99.90;;;;;;4939877;29;20182;-82
2022/05/04 08:46:41;;;;;;;5.85;2.50;;;13.70;99.70;;;;;;4940074;29;20221;-82
2022/05/04 08:49:07;;;;;;;7.90;2.38;;;13.90;99.90;;;;;;4938668;29;20188;-81
2022/05/04 08:51:36;;;;;;;8.90;2.53;;;14.00;99.90;;;;;;4939506;29;20685;-81
2022/05/04 08:54:03;;;;;;;6.85;2.75;;;14.20;99.90;;;;;;4939743;29;20178;-81
2022/05/04 08:56:29;;;;;;;7.93;2.80;;;14.30;99.90;;;;;;4939551;29;20326;-81
2022/05/04 08:58:55;;;;;;;8.60;2.83;;;14.30;99.70;;;;;;4939796;29;20174;-83
2022/05/04 09:01:23;;;;;;;8.75;2.75;;;14.30;99.90;;;;;;4922618;29;20189;-81
2022/05/04 09:03:49;;;;;;;14.13;3.40;;;14.30;99.90;;;;;;4938376;29;20181;-82
2022/05/04 09:06:27;;;;;;;7.93;2.63;;;14.30;99.10;;;;;;4939179;29;20197;-81
2022/05/04 09:09:03;;;;;;;7.15;2.65;;;14.30;99.20;;;;;;4939628;29;20259;-82
2022/05/04 09:11:29;;;;;;;10.70;3.25;;;14.30;99.60;;;;;;4939469;29;20176;-82
2022/05/04 09:13:55;;;;;;;9.55;3.13;;;14.40;99.40;;;;;;4938258;29;20178;-81
2022/05/04 09:16:25;;;;;;;10.10;2.75;;;14.50;99.90;;;;;;4939355;29;20186;-82
2022/05/04 09:18:51;;;;;;;6.40;2.80;;;14.60;99.90;;;;;;4939336;29;20246;-83
2022/05/04 09:21:22;;;;;;;8.00;2.95;;;14.70;99.80;;;;;;4939112;29;20261;-83
2022/05/04 09:23:52;;;;;;;8.00;2.60;;;15.00;99.60;;;;;;4939460;29;20294;-82
2022/05/04 09:26:19;;;;;;;8.05;2.70;;;15.20;99.90;;;;;;4939449;29;20673;-83
2022/05/04 09:28:56;;;;;;;6.55;2.55;;;15.40;99.60;;;;;;4937941;29;20276;-82
2022/05/04 09:31:25;;;;;;;8.93;3.17;;;15.50;98.70;;;;;;4938993;29;20201;-82
2022/05/04 09:33:56;;;;;;;9.25;2.58;;;15.70;99.00;;;;;;4937875;29;20273;-82
2022/05/04 09:36:34;;;;;;;9.45;2.70;;;15.80;97.60;;;;;;4937663;29;20198;-83
2022/05/04 09:45:06;;;;;;;7.05;2.97;;;15.50;96.80;;;;;;4939067;29;20173;-82
2022/05/04 09:47:37;;;;;;;6.95;2.90;;;15.50;99.50;;;;;;4938805;29;20495;-83
2022/05/04 09:50:03;;;;;;;7.43;2.38;;;15.70;98.50;;;;;;4938915;29;20232;-84
2022/05/04 09:52:41;;;;;;;7.53;2.53;;;15.80;97.90;;;;;;4936440;29;20186;-83
2022/05/04 09:55:27;;;;;;;9.63;2.85;;;15.90;97.90;;;;;;4937292;29;20240;-82
2022/05/04 09:57:55;;;;;;;5.53;2.70;;;16.10;98.10;;;;;;4937237;29;20213;-85
2022/05/04 10:00:24;;;;;;;8.90;2.92;;;16.20;98.80;;;;;;4937406;29;20531;-83
2022/05/04 10:02:54;;;;;;;10.25;3.63;;;16.30;97.30;;;;;;4937376;29;20209;-83
2022/05/04 10:05:20;;;;;;;6.00;2.75;;;16.40;97.80;;;;;;4938365;29;20177;-84
2022/05/04 10:07:49;;;;;;;7.07;2.78;;;16.40;96.40;;;;;;4938441;29;20625;-83
2022/05/04 10:10:25;;;;;;;10.27;3.10;;;16.40;96.90;;;;;;4937251;29;20193;-84
2022/05/04 10:12:51;;;;;;;9.85;3.10;;;16.50;96.70;;;;;;4937172;29;20560;-83
2022/05/04 10:15:19;;;;;;;7.60;3.30;;;16.60;97.20;;;;;;4937212;29;20248;-83
2022/05/04 10:18:05;;;;;;;7.65;3.35;;;16.70;96.60;;;;;;4938205;29;20493;-83
2022/05/04 10:20:37;;;;;;;9.85;4.03;;;16.80;97.00;;;;;;4936937;29;20205;-82
2022/05/04 10:23:22;;;;;;;7.05;3.40;;;16.90;95.80;;;;;;4938048;29;20198;-81
2022/05/04 10:25:52;;;;;;;8.13;3.50;;;16.90;96.80;;;;;;4938356;29;20199;-82
2022/05/04 10:28:18;;;;;;;10.05;3.70;;;17.00;97.40;;;;;;4938202;29;20284;-83
2022/05/04 10:30:47;;;;;;;10.68;3.05;;;17.00;95.10;;;;;;4938111;29;20189;-82
2022/05/04 10:33:17;;;;;;;6.65;3.05;;;17.00;96.60;;;;;;4938128;29;20178;-82
2022/05/04 10:35:45;;;;;;;6.45;3.50;;;17.20;96.90;;;;;;4936352;29;20225;-82
2022/05/04 10:38:12;;;;;;;10.00;3.15;;;17.40;97.50;;;;;;4936530;29;20182;-81
2022/05/04 10:40:56;;;;;;;9.25;3.85;;;17.50;96.00;;;;;;4938030;29;20181;-81
2022/05/04 10:43:41;;;;;;;8.70;3.70;;;17.50;97.80;;;;;;4937811;29;20188;-82
2022/05/04 10:46:12;;;;;;;8.80;3.22;;;17.50;96.80;;;;;;4936502;29;20205;-82
2022/05/04 10:48:50;;;;;;;8.40;3.53;;;17.50;96.40;;;;;;4936540;29;20186;-82
2022/05/04 10:51:21;;;;;;;10.13;4.35;;;17.50;96.90;;;;;;4937525;29;20312;-82
2022/05/04 10:54:03;;;;;;;7.10;3.53;;;17.50;94.80;;;;;;4935753;29;20189;-83
2022/05/04 10:56:42;;;;;;;6.75;3.13;;;17.60;95.10;;;;;;4937482;29;20779;-84
2022/05/04 10:59:09;;;;;;;9.10;3.30;;;17.50;95.00;;;;;;4936282;29;20185;-84
2022/05/04 11:01:38;;;;;;;8.85;3.60;;;17.40;95.10;;;;;;4935134;29;20178;-82
2022/05/04 11:04:10;;;;;;;6.47;3.50;;;17.30;95.40;;;;;;4936177;29;20215;-82
2022/05/04 11:06:40;;;;;;;12.27;3.35;;;17.40;96.00;;;;;;4937386;29;20644;-83
2022/05/04 11:09:10;;;;;;;7.05;3.33;;;17.30;97.40;;;;;;4937395;29;20187;-81
2022/05/04 11:11:37;;;;;;;8.13;3.35;;;17.30;96.70;;;;;;4937320;29;20178;-81
2022/05/04 11:14:05;;;;;;;8.52;3.20;;;17.30;96.20;;;;;;4936228;29;20170;-82
2022/05/04 11:16:31;;;;;;;9.15;3.33;;;17.40;95.80;;;;;;4937172;29;20260;-82
2022/05/04 11:19:04;;;;;;;9.93;3.30;;;17.60;96.10;;;;;;4936147;29;20185;-82
2022/05/04 11:21:31;;;;;;;9.88;3.28;;;17.70;95.10;;;;;;4937170;29;20628;-81
2022/05/04 11:24:00;;;;;;;8.95;3.33;;;17.80;94.00;;;;;;4937725;29;20182;-82
2022/05/04 11:26:33;;;;;;;7.78;3.42;;;17.90;95.20;;;;;;4936067;29;20188;-81
2022/05/04 11:28:59;;;;;;;10.43;2.88;;;17.80;95.60;;;;;;4937245;29;20612;-82
2022/05/04 11:31:25;;;;;;;6.63;3.08;;;17.70;94.50;;;;;;4936917;29;20184;-82
2022/05/04 11:33:51;;;;;;;8.38;3.30;;;17.70;94.90;;;;;;4935799;29;20221;-82
2022/05/04 11:36:19;;;;;;;7.45;3.35;;;17.70;94.90;;;;;;4937329;29;20410;-82
2022/05/04 11:38:46;;;;;;;8.48;3.13;;;18.00;94.90;;;;;;4937124;29;20174;-81
2022/05/04 11:41:12;;;;;;;8.98;3.60;;;18.20;95.40;;;;;;4937174;29;20185;-83
2022/05/04 11:43:38;;;;;;;9.40;3.50;;;18.40;94.20;;;;;;4937146;29;20170;-82
2022/05/04 11:46:06;;;;;;;8.25;3.80;;;18.50;94.10;;;;;;4937194;29;20628;-83
2022/05/04 11:48:43;;;;;;;7.80;3.65;;;18.70;95.00;;;;;;4935385;29;20182;-84
2022/05/04 11:51:11;;;;;;;11.40;3.92;;;18.70;94.70;;;;;;4935859;29;20184;-82
2022/05/04 11:53:37;;;;;;;10.27;4.07;;;18.50;93.70;;;;;;4935848;29;20181;-82
2022/05/04 11:56:05;;;;;;;11.25;3.75;;;18.40;94.90;;;;;;4936819;29;20230;-82
2022/05/04 11:58:32;;;;;;;6.75;3.78;;;18.40;95.00;;;;;;4937092;29;20178;-83
2022/05/04 12:00:59;;;;;;;8.98;3.63;;;18.50;96.60;;;;;;4936832;29;20621;-83
2022/05/04 12:03:25;;;;;;;7.45;4.30;;;18.70;94.90;;;;;;4936626;29;20190;-83
2022/05/04 12:05:53;;;;;;;11.40;4.20;;;18.80;94.20;;;;;;4937093;29;20188;-84
2022/05/04 12:08:19;;;;;;;10.32;3.80;;;19.10;95.20;;;;;;4936805;29;20256;-84
2022/05/04 12:10:47;;;;;;;9.35;4.40;;;19.50;93.50;;;;;;4935725;29;20518;-83
2022/05/04 12:13:17;;;;;;;11.25;4.10;;;19.90;92.20;;;;;;4937084;29;20178;-82
2022/05/04 12:15:43;;;;;;;9.45;3.67;;;20.10;93.20;;;;;;4935782;29;20629;-82
2022/05/04 12:18:11;;;;;;;7.85;4.07;;;20.00;93.80;;;;;;4940317;29;20182;-82
2022/05/04 12:20:36;;;;;;;8.57;3.60;;;20.20;91.40;;;;;;4940546;29;20178;-83
2022/05/04 12:23:04;;;;;;;9.02;3.75;;;20.20;91.80;;;;;;4940367;29;20182;-82
2022/05/04 12:25:31;;;;;;;7.85;4.15;;;20.00;91.90;;;;;;4939341;29;20186;-83
2022/05/04 12:27:57;;;;;;;7.35;3.85;;;19.90;93.20;;;;;;4940299;29;20620;-83
2022/05/04 12:33:10;;;;;;;7.10;3.85;;;20.10;91.90;;;;;;4940209;29;20193;-82
2022/05/04 12:35:44;;;;;;;7.25;3.83;;;20.00;90.70;;;;;;4939026;29;20293;-82
2022/05/04 12:38:16;;;;;;;8.25;4.05;;;20.10;90.10;;;;;;4940227;29;20581;-83
2022/05/04 12:40:43;;;;;;;7.65;3.72;;;19.90;90.60;;;;;;4940416;29;20194;-80
2022/05/04 12:43:09;;;;;;;8.07;4.32;;;19.70;90.10;;;;;;4939996;29;20167;-83
2022/05/04 12:45:37;;;;;;;8.57;4.05;;;19.50;91.40;;;;;;4940188;29;20613;-83
2022/05/04 12:48:10;;;;;;;7.60;3.92;;;19.70;91.90;;;;;;4938521;29;20185;-83
2022/05/04 12:50:37;;;;;;;10.13;4.00;;;20.00;91.50;;;;;;4939992;29;20174;-83
2022/05/04 12:53:05;;;;;;;9.18;3.97;;;20.20;90.50;;;;;;4938701;29;20178;-82
2022/05/04 12:58:15;;;;;;;11.30;3.67;;;20.10;90.20;;;;;;4940119;29;20169;-82
2022/05/04 13:00:42;;;;;;;8.38;3.80;;;19.80;90.80;;;;;;4938697;29;20265;-82
2022/05/04 13:03:11;;;;;;;8.73;3.72;;;19.80;90.40;;;;;;4939517;29;20250;-82
2022/05/04 13:05:40;;;;;;;11.40;4.32;;;19.60;91.10;;;;;;4939691;29;20178;-82
2022/05/04 13:08:06;;;;;;;7.05;3.83;;;19.40;91.40;;;;;;4939557;29;20261;-82
2022/05/04 13:10:32;;;;;;;7.03;4.20;;;19.40;91.50;;;;;;4938420;29;20192;-83
2022/05/04 13:12:59;;;;;;;10.10;3.85;;;19.30;91.80;;;;;;4938378;29;20186;-83
2022/05/04 13:15:25;;;;;;;6.93;4.07;;;19.30;91.10;;;;;;4939757;29;20213;-82
2022/05/04 13:17:51;;;;;;;14.50;4.50;;;19.00;90.90;;;;;;4939307;29;20178;-82
2022/05/04 13:20:18;;;;;;;9.65;4.40;;;18.80;91.20;;;;;;4939473;29;20305;-82
2022/05/04 13:22:44;;;;;;;7.20;3.97;;;18.70;91.70;;;;;;4939384;29;20173;-82
2022/05/04 13:25:10;;;;;;;11.32;3.90;;;18.50;92.20;;;;;;4938114;29;20178;-82
2022/05/04 13:27:36;;;;;;;13.63;4.63;;;18.50;93.50;;;;;;4939327;29;20166;-82